Huvudsida
METAR-TAF:

METAR-TAF

Flygplatser :

Saint-Brieuc, Frankrike

latitud: 48-32N, longitud: 002-51W, höjd: 138 m

Aktuellt väderrapport

Denna rapport gjordes för 5 timmar och 47 minuter sedan, klockan 22:00 UTC
Vind 8 kt från syd/sydost, varierande mellan sydost och syd/sydväst
Temperatur 7°C
Fuktighet 87%
Tryck 1013 hPa
Sikt 10 km eller mer
Få moln på en höjd av 3200 ft
Brutna moln på en höjd av 22000 ft
Mulet på en höjd av 24000 ft

METAR: LFRT 192200Z AUTO 16008KT 130V200 9999 FEW032 BKN220 OVC240 07/05 Q1013

Tid: 04:47 (03:47 UTC)


TAF: saknas

Aktuella väderrapporter och prognoser från 4000 flygplatser (METAR- och TAF-rapporter).

De tillgängliga stationerna syns som gula och röda prickar på kartan.

För musen över prickarna för att se namnen på stationerna.

Klicka sedan för att få väderrapporter och prognoser.

För att ändra kartan: Klicka på de gröna knapparna med ett svart kors på för att zooma in; den gröna knappen med ett streck på för att zooma ut; eller på de gröna pilarna för angränsande kartor.


METAR-TAF: